sensor_id;sensor_type;location;lat;lon;timestamp;pressure;altitude;pressure_sealevel;temperature;humidity
69909;BME280;57190;47.918;8.112;2022-12-18T00:01:20;91358.03;;;-8.26;75.46
69909;BME280;57190;47.918;8.112;2022-12-18T00:03:47;91356.94;;;-8.24;75.45
69909;BME280;57190;47.918;8.112;2022-12-18T00:06:13;91357.38;;;-8.28;75.17
69909;BME280;57190;47.918;8.112;2022-12-18T00:08:40;91344.16;;;-8.35;75.47
69909;BME280;57190;47.918;8.112;2022-12-18T00:11:12;91344.75;;;-8.41;75.49
69909;BME280;57190;47.918;8.112;2022-12-18T00:13:38;91344.22;;;-8.45;75.64
69909;BME280;57190;47.918;8.112;2022-12-18T00:16:05;91340.75;;;-8.54;74.64
69909;BME280;57190;47.918;8.112;2022-12-18T00:18:32;91344.47;;;-8.66;75.58
69909;BME280;57190;47.918;8.112;2022-12-18T00:20:59;91345.19;;;-8.74;75.27
69909;BME280;57190;47.918;8.112;2022-12-18T00:23:25;91337.44;;;-8.83;74.12
69909;BME280;57190;47.918;8.112;2022-12-18T00:25:51;91346.72;;;-8.91;75.49
69909;BME280;57190;47.918;8.112;2022-12-18T00:28:16;91345.91;;;-8.91;75.42
69909;BME280;57190;47.918;8.112;2022-12-18T00:30:42;91359.38;;;-8.97;75.04
69909;BME280;57190;47.918;8.112;2022-12-18T00:33:07;91371.66;;;-8.99;74.86
69909;BME280;57190;47.918;8.112;2022-12-18T00:35:33;91365.63;;;-9.00;75.56
69909;BME280;57190;47.918;8.112;2022-12-18T00:37:58;91362.63;;;-8.95;74.82
69909;BME280;57190;47.918;8.112;2022-12-18T00:40:24;91362.50;;;-8.94;75.41
69909;BME280;57190;47.918;8.112;2022-12-18T00:42:49;91364.44;;;-8.96;74.71
69909;BME280;57190;47.918;8.112;2022-12-18T00:45:22;91363.75;;;-8.98;74.66
69909;BME280;57190;47.918;8.112;2022-12-18T00:47:47;91363.63;;;-9.06;74.64
69909;BME280;57190;47.918;8.112;2022-12-18T00:50:13;91364.97;;;-9.12;73.70
69909;BME280;57190;47.918;8.112;2022-12-18T00:52:39;91361.31;;;-9.19;74.39
69909;BME280;57190;47.918;8.112;2022-12-18T00:55:05;91361.59;;;-9.12;76.75
69909;BME280;57190;47.918;8.112;2022-12-18T00:57:31;91365.13;;;-9.13;75.54
69909;BME280;57190;47.918;8.112;2022-12-18T00:59:57;91366.09;;;-9.14;74.33
69909;BME280;57190;47.918;8.112;2022-12-18T01:02:22;91363.09;;;-9.10;75.33
69909;BME280;57190;47.918;8.112;2022-12-18T01:04:49;91368.00;;;-9.07;74.59
69909;BME280;57190;47.918;8.112;2022-12-18T01:07:14;91365.13;;;-9.13;73.62
69909;BME280;57190;47.918;8.112;2022-12-18T01:09:40;91366.09;;;-9.14;74.94
69909;BME280;57190;47.918;8.112;2022-12-18T01:12:05;91371.91;;;-9.22;75.72
69909;BME280;57190;47.918;8.112;2022-12-18T01:14:31;91373.69;;;-9.23;74.98
69909;BME280;57190;47.918;8.112;2022-12-18T01:16:57;91369.34;;;-9.22;74.82
69909;BME280;57190;47.918;8.112;2022-12-18T01:19:22;91374.66;;;-9.24;73.94
69909;BME280;57190;47.918;8.112;2022-12-18T01:21:49;91365.81;;;-9.31;73.79
69909;BME280;57190;47.918;8.112;2022-12-18T01:24:14;91372.34;;;-9.37;74.31
69909;BME280;57190;47.918;8.112;2022-12-18T01:26:40;91374.53;;;-9.42;73.58
69909;BME280;57190;47.918;8.112;2022-12-18T01:29:05;91382.13;;;-9.40;75.52
69909;BME280;57190;47.918;8.112;2022-12-18T01:31:32;91381.47;;;-9.33;75.91
69909;BME280;57190;47.918;8.112;2022-12-18T01:34:00;91385.97;;;-9.44;73.41
69909;BME280;57190;47.918;8.112;2022-12-18T01:36:29;91398.72;;;-9.43;74.72
69909;BME280;57190;47.918;8.112;2022-12-18T01:38:56;91392.47;;;-9.40;74.81
69909;BME280;57190;47.918;8.112;2022-12-18T01:41:25;91396.00;;;-9.41;75.38
69909;BME280;57190;47.918;8.112;2022-12-18T01:43:54;91392.47;;;-9.40;74.97
69909;BME280;57190;47.918;8.112;2022-12-18T01:46:22;91390.28;;;-9.35;73.62
69909;BME280;57190;47.918;8.112;2022-12-18T01:48:52;91388.13;;;-9.30;74.32
69909;BME280;57190;47.918;8.112;2022-12-18T01:51:18;91400.63;;;-9.35;73.75
69909;BME280;57190;47.918;8.112;2022-12-18T01:53:45;91389.47;;;-9.36;73.81
69909;BME280;57190;47.918;8.112;2022-12-18T01:56:15;91390.84;;;-9.41;72.66
69909;BME280;57190;47.918;8.112;2022-12-18T02:01:06;91396.69;;;-9.29;75.50
69909;BME280;57190;47.918;8.112;2022-12-18T02:03:32;91395.06;;;-9.11;76.01
69909;BME280;57190;47.918;8.112;2022-12-18T02:08:43;91393.94;;;-9.08;74.44
69909;BME280;57190;47.918;8.112;2022-12-18T02:11:54;91389.72;;;-8.90;74.35
69909;BME280;57190;47.918;8.112;2022-12-18T02:17:00;91395.53;;;-8.78;74.26
69909;BME280;57190;47.918;8.112;2022-12-18T02:28:00;91406.22;;;-9.30;73.89
69909;BME280;57190;47.918;8.112;2022-12-18T02:30:30;91407.97;;;-9.40;73.91
69909;BME280;57190;47.918;8.112;2022-12-18T02:32:59;91420.06;;;-9.51;74.55
69909;BME280;57190;47.918;8.112;2022-12-18T02:35:29;91413.00;;;-9.58;74.97
69909;BME280;57190;47.918;8.112;2022-12-18T02:37:56;91415.84;;;-9.71;74.36
69909;BME280;57190;47.918;8.112;2022-12-18T02:40:24;91410.13;;;-9.75;74.14
69909;BME280;57190;47.918;8.112;2022-12-18T02:42:51;91410.78;;;-9.73;73.84
69909;BME280;57190;47.918;8.112;2022-12-18T02:45:17;91411.47;;;-9.71;73.25
69909;BME280;57190;47.918;8.112;2022-12-18T02:47:46;91415.69;;;-9.80;74.02
69909;BME280;57190;47.918;8.112;2022-12-18T02:50:37;91403.44;;;-9.77;73.90
69909;BME280;57190;47.918;8.112;2022-12-18T02:55:48;91407.78;;;-9.78;72.71
69909;BME280;57190;47.918;8.112;2022-12-18T03:00:55;91422.78;;;-9.62;73.91
69909;BME280;57190;47.918;8.112;2022-12-18T03:03:50;91413.41;;;-9.63;74.21
69909;BME280;57190;47.918;8.112;2022-12-18T03:07:09;91413.94;;;-9.59;75.18
69909;BME280;57190;47.918;8.112;2022-12-18T03:09:34;91418.56;;;-9.53;74.71
69909;BME280;57190;47.918;8.112;2022-12-18T03:12:07;91411.09;;;-9.46;74.81
69909;BME280;57190;47.918;8.112;2022-12-18T03:15:14;91420.19;;;-9.52;75.56
69909;BME280;57190;47.918;8.112;2022-12-18T03:17:50;91423.06;;;-9.45;75.02
69909;BME280;57190;47.918;8.112;2022-12-18T03:20:19;91415.44;;;-9.57;74.53
69909;BME280;57190;47.918;8.112;2022-12-18T03:22:50;91416.78;;;-9.63;73.62
69909;BME280;57190;47.918;8.112;2022-12-18T03:25:17;91421.16;;;-9.63;74.25
69909;BME280;57190;47.918;8.112;2022-12-18T03:27:47;91425.63;;;-9.55;74.54
69909;BME280;57190;47.918;8.112;2022-12-18T03:30:15;91428.09;;;-9.54;74.73
69909;BME280;57190;47.918;8.112;2022-12-18T03:32:55;91424.44;;;-9.51;75.05
69909;BME280;57190;47.918;8.112;2022-12-18T03:35:29;91420.50;;;-9.45;75.94
69909;BME280;57190;47.918;8.112;2022-12-18T03:37:56;91420.09;;;-9.41;74.30
69909;BME280;57190;47.918;8.112;2022-12-18T03:40:31;91428.09;;;-9.44;74.78
69909;BME280;57190;47.918;8.112;2022-12-18T03:43:05;91423.88;;;-9.45;75.50
69909;BME280;57190;47.918;8.112;2022-12-18T03:45:37;91429.72;;;-9.43;75.14
69909;BME280;57190;47.918;8.112;2022-12-18T03:48:18;91423.19;;;-9.47;75.65
69909;BME280;57190;47.918;8.112;2022-12-18T03:50:53;91424.81;;;-9.46;75.46
69909;BME280;57190;47.918;8.112;2022-12-18T03:53:32;91420.50;;;-9.45;74.31
69909;BME280;57190;47.918;8.112;2022-12-18T03:56:00;91432.44;;;-9.54;75.55
69909;BME280;57190;47.918;8.112;2022-12-18T03:58:28;91431.34;;;-9.61;73.98
69909;BME280;57190;47.918;8.112;2022-12-18T04:00:56;91435.94;;;-9.75;74.67
69909;BME280;57190;47.918;8.112;2022-12-18T04:03:25;91441.22;;;-9.76;75.14
69909;BME280;57190;47.918;8.112;2022-12-18T04:05:54;91438.91;;;-9.80;73.46
69909;BME280;57190;47.918;8.112;2022-12-18T04:08:21;91435.81;;;-9.73;76.05
69909;BME280;57190;47.918;8.112;2022-12-18T04:10:47;91442.91;;;-9.66;74.74
69909;BME280;57190;47.918;8.112;2022-12-18T04:13:12;91448.72;;;-9.64;75.89
69909;BME280;57190;47.918;8.112;2022-12-18T04:15:38;91444.41;;;-9.63;75.79
69909;BME280;57190;47.918;8.112;2022-12-18T04:18:04;91447.91;;;-9.64;74.93
69909;BME280;57190;47.918;8.112;2022-12-18T04:20:29;91440.31;;;-9.66;75.89
69909;BME280;57190;47.918;8.112;2022-12-18T04:22:55;91443.44;;;-9.62;76.78
69909;BME280;57190;47.918;8.112;2022-12-18T04:25:20;91443.69;;;-9.65;76.26
69909;BME280;57190;47.918;8.112;2022-12-18T04:27:46;91443.28;;;-9.70;76.02
69909;BME280;57190;47.918;8.112;2022-12-18T04:30:11;91440.41;;;-9.77;75.36
69909;BME280;57190;47.918;8.112;2022-12-18T04:32:37;91442.84;;;-9.75;74.52
69909;BME280;57190;47.918;8.112;2022-12-18T04:35:03;91435.09;;;-9.75;76.15
69909;BME280;57190;47.918;8.112;2022-12-18T04:37:29;91434.03;;;-9.73;75.95
69909;BME280;57190;47.918;8.112;2022-12-18T04:39:55;91441.66;;;-9.71;76.13
69909;BME280;57190;47.918;8.112;2022-12-18T04:42:21;91432.44;;;-9.64;76.17
69909;BME280;57190;47.918;8.112;2022-12-18T04:44:46;91438.81;;;-9.58;75.80
69909;BME280;57190;47.918;8.112;2022-12-18T04:47:12;91441.41;;;-9.58;76.67
69909;BME280;57190;47.918;8.112;2022-12-18T04:49:37;91428.75;;;-9.61;76.63
69909;BME280;57190;47.918;8.112;2022-12-18T04:52:02;91428.50;;;-9.58;77.35
69909;BME280;57190;47.918;8.112;2022-12-18T04:54:28;91428.22;;;-9.65;74.98
69909;BME280;57190;47.918;8.112;2022-12-18T04:56:53;91434.88;;;-9.63;77.44
69909;BME280;57190;47.918;8.112;2022-12-18T04:59:19;91438.13;;;-9.60;76.01
69909;BME280;57190;47.918;8.112;2022-12-18T05:01:44;91444.00;;;-9.58;75.25
69909;BME280;57190;47.918;8.112;2022-12-18T05:04:10;91444.41;;;-9.53;76.28
69909;BME280;57190;47.918;8.112;2022-12-18T05:06:36;91440.72;;;-9.51;75.55
69909;BME280;57190;47.918;8.112;2022-12-18T05:09:01;91445.63;;;-9.48;77.31
69909;BME280;57190;47.918;8.112;2022-12-18T05:11:27;91453.38;;;-9.48;75.63
69909;BME280;57190;47.918;8.112;2022-12-18T05:13:52;91445.63;;;-9.48;76.76
69909;BME280;57190;47.918;8.112;2022-12-18T05:16:18;91438.84;;;-9.49;76.35
69909;BME280;57190;47.918;8.112;2022-12-18T05:18:43;91450.13;;;-9.50;76.73
69909;BME280;57190;47.918;8.112;2022-12-18T05:21:09;91449.72;;;-9.55;76.23
69909;BME280;57190;47.918;8.112;2022-12-18T05:23:34;91452.53;;;-9.58;76.33
69909;BME280;57190;47.918;8.112;2022-12-18T05:26:02;91451.84;;;-9.60;76.41
69909;BME280;57190;47.918;8.112;2022-12-18T05:28:29;91461.63;;;-9.64;78.17
69909;BME280;57190;47.918;8.112;2022-12-18T05:30:57;91465.06;;;-9.63;77.53
69909;BME280;57190;47.918;8.112;2022-12-18T05:33:24;91464.22;;;-9.64;78.66
69909;BME280;57190;47.918;8.112;2022-12-18T05:35:51;91469.38;;;-9.64;77.80
69909;BME280;57190;47.918;8.112;2022-12-18T05:38:18;91463.28;;;-9.63;79.25
69909;BME280;57190;47.918;8.112;2022-12-18T05:40:43;91469.53;;;-9.55;78.26
69909;BME280;57190;47.918;8.112;2022-12-18T05:43:09;91461.69;;;-9.54;77.48
69909;BME280;57190;47.918;8.112;2022-12-18T05:45:39;91478.13;;;-9.55;77.60
69909;BME280;57190;47.918;8.112;2022-12-18T05:48:05;91470.91;;;-9.51;79.02
69909;BME280;57190;47.918;8.112;2022-12-18T05:50:30;91475.13;;;-9.50;79.39
69909;BME280;57190;47.918;8.112;2022-12-18T05:52:58;91471.22;;;-9.44;77.64
69909;BME280;57190;47.918;8.112;2022-12-18T05:55:23;91478.53;;;-9.50;77.42
69909;BME280;57190;47.918;8.112;2022-12-18T05:57:49;91478.13;;;-9.55;77.98
69909;BME280;57190;47.918;8.112;2022-12-18T06:00:15;91488.44;;;-9.55;76.28
69909;BME280;57190;47.918;8.112;2022-12-18T06:02:40;91483.97;;;-9.53;77.16
69909;BME280;57190;47.918;8.112;2022-12-18T06:05:06;91481.25;;;-9.51;77.62
69909;BME280;57190;47.918;8.112;2022-12-18T06:07:32;91478.66;;;-9.51;78.02
69909;BME280;57190;47.918;8.112;2022-12-18T06:09:57;91475.94;;;-9.50;77.98
69909;BME280;57190;47.918;8.112;2022-12-18T06:12:22;91490.50;;;-9.49;78.94
69909;BME280;57190;47.918;8.112;2022-12-18T06:14:48;91480.03;;;-9.47;78.44
69909;BME280;57190;47.918;8.112;2022-12-18T06:17:13;91491.19;;;-9.46;77.72
69909;BME280;57190;47.918;8.112;2022-12-18T06:19:39;91496.34;;;-9.46;78.86
69909;BME280;57190;47.918;8.112;2022-12-18T06:22:04;91495.13;;;-9.42;78.06
69909;BME280;57190;47.918;8.112;2022-12-18T06:24:30;91499.09;;;-9.38;78.66
69909;BME280;57190;47.918;8.112;2022-12-18T06:26:55;91505.59;;;-9.44;77.91
69909;BME280;57190;47.918;8.112;2022-12-18T06:29:20;91510.88;;;-9.55;77.03
69909;BME280;57190;47.918;8.112;2022-12-18T06:31:46;91506.78;;;-9.58;76.83
69909;BME280;57190;47.918;8.112;2022-12-18T06:34:11;91509.63;;;-9.61;75.74
69909;BME280;57190;47.918;8.112;2022-12-18T06:36:37;91506.25;;;-9.52;76.77
69909;BME280;57190;47.918;8.112;2022-12-18T06:39:02;91515.47;;;-9.59;76.93
69909;BME280;57190;47.918;8.112;2022-12-18T06:41:28;91512.78;;;-9.57;77.36
69909;BME280;57190;47.918;8.112;2022-12-18T06:43:54;91518.34;;;-9.62;76.82
69909;BME280;57190;47.918;8.112;2022-12-18T06:46:19;91521.03;;;-9.64;75.47
69909;BME280;57190;47.918;8.112;2022-12-18T06:48:49;91528.22;;;-9.67;76.42
69909;BME280;57190;47.918;8.112;2022-12-18T06:51:20;91538.94;;;-9.72;75.87
69909;BME280;57190;47.918;8.112;2022-12-18T06:53:46;91536.50;;;-9.73;75.83
69909;BME280;57190;47.918;8.112;2022-12-18T06:56:11;91533.22;;;-9.75;75.11
69909;BME280;57190;47.918;8.112;2022-12-18T06:58:38;91528.91;;;-9.75;76.00
69909;BME280;57190;47.918;8.112;2022-12-18T07:01:06;91523.75;;;-9.75;75.83
69909;BME280;57190;47.918;8.112;2022-12-18T07:03:32;91534.19;;;-9.76;74.88
69909;BME280;57190;47.918;8.112;2022-12-18T07:05:58;91530.41;;;-9.72;74.05
69909;BME280;57190;47.918;8.112;2022-12-18T07:08:24;91532.44;;;-9.76;75.20
69909;BME280;57190;47.918;8.112;2022-12-18T07:10:49;91527.66;;;-9.81;75.33
69909;BME280;57190;47.918;8.112;2022-12-18T07:13:16;91533.94;;;-9.73;74.66
69909;BME280;57190;47.918;8.112;2022-12-18T07:15:41;91531.09;;;-9.70;74.41
69909;BME280;57190;47.918;8.112;2022-12-18T07:18:07;91527.84;;;-9.63;75.73
69909;BME280;57190;47.918;8.112;2022-12-18T07:20:32;91537.22;;;-9.61;74.32
69909;BME280;57190;47.918;8.112;2022-12-18T07:22:58;91529.88;;;-9.66;74.80
69909;BME280;57190;47.918;8.112;2022-12-18T07:25:23;91530.69;;;-9.66;75.27
69909;BME280;57190;47.918;8.112;2022-12-18T07:27:49;91527.03;;;-9.63;75.08
69909;BME280;57190;47.918;8.112;2022-12-18T07:30:14;91532.63;;;-9.58;75.07
69909;BME280;57190;47.918;8.112;2022-12-18T07:32:39;91539.56;;;-9.49;74.62
69909;BME280;57190;47.918;8.112;2022-12-18T07:35:05;91539.09;;;-9.33;74.74
69909;BME280;57190;47.918;8.112;2022-12-18T07:37:31;91543.03;;;-9.28;73.07
69909;BME280;57190;47.918;8.112;2022-12-18T07:39:56;91547.69;;;-9.12;74.89
69909;BME280;57190;47.918;8.112;2022-12-18T07:42:22;91545.41;;;-8.96;73.93
69909;BME280;57190;47.918;8.112;2022-12-18T07:44:57;91545.13;;;-8.63;74.54
69909;BME280;57190;47.918;8.112;2022-12-18T07:47:23;91555.44;;;-8.44;73.15
69909;BME280;57190;47.918;8.112;2022-12-18T07:49:48;91544.56;;;-6.51;70.78
69909;BME280;57190;47.918;8.112;2022-12-18T07:52:14;91545.47;;;-4.26;63.95
69909;BME280;57190;47.918;8.112;2022-12-18T07:54:40;91552.94;;;-3.73;62.06
69909;BME280;57190;47.918;8.112;2022-12-18T07:57:06;91555.53;;;-3.40;62.54
69909;BME280;57190;47.918;8.112;2022-12-18T07:59:31;91546.88;;;-2.30;60.09
69909;BME280;57190;47.918;8.112;2022-12-18T08:01:57;91566.94;;;-0.33;56.58
69909;BME280;57190;47.918;8.112;2022-12-18T08:04:24;91567.13;;;3.02;49.31
69909;BME280;57190;47.918;8.112;2022-12-18T08:06:49;91558.50;;;4.77;41.96
69909;BME280;57190;47.918;8.112;2022-12-18T08:09:15;91561.75;;;5.04;39.01
69909;BME280;57190;47.918;8.112;2022-12-18T08:11:41;91564.66;;;3.93;39.73
69909;BME280;57190;47.918;8.112;2022-12-18T08:14:06;91568.44;;;3.58;40.97
69909;BME280;57190;47.918;8.112;2022-12-18T08:16:32;91573.78;;;2.58;42.54
69909;BME280;57190;47.918;8.112;2022-12-18T08:21:28;91572.69;;;4.18;43.61
69909;BME280;57190;47.918;8.112;2022-12-18T08:23:55;91574.84;;;5.24;41.07
69909;BME280;57190;47.918;8.112;2022-12-18T08:26:21;91563.78;;;5.53;38.88
69909;BME280;57190;47.918;8.112;2022-12-18T08:28:48;91568.34;;;4.31;39.51
69909;BME280;57190;47.918;8.112;2022-12-18T08:31:13;91562.50;;;3.76;39.10
69909;BME280;57190;47.918;8.112;2022-12-18T08:33:40;91560.63;;;3.18;40.20
69909;BME280;57190;47.918;8.112;2022-12-18T08:36:07;91566.25;;;2.28;42.44
69909;BME280;57190;47.918;8.112;2022-12-18T08:38:33;91567.59;;;1.97;44.47
69909;BME280;57190;47.918;8.112;2022-12-18T08:41:00;91556.31;;;2.16;44.44
69909;BME280;57190;47.918;8.112;2022-12-18T08:43:26;91556.59;;;5.34;39.74
69909;BME280;57190;47.918;8.112;2022-12-18T08:46:11;91555.38;;;4.61;39.87
69909;BME280;57190;47.918;8.112;2022-12-18T08:48:37;91546.41;;;6.31;37.81
69909;BME280;57190;47.918;8.112;2022-12-18T08:51:02;91538.09;;;7.71;34.37
69909;BME280;57190;47.918;8.112;2022-12-18T08:53:28;91533.59;;;7.72;34.74
69909;BME280;57190;47.918;8.112;2022-12-18T08:55:55;91533.28;;;8.09;34.11
69909;BME280;57190;47.918;8.112;2022-12-18T08:58:21;91536.81;;;6.60;35.57
69909;BME280;57190;47.918;8.112;2022-12-18T09:00:47;91540.16;;;5.51;37.56
69909;BME280;57190;47.918;8.112;2022-12-18T09:03:17;91536.63;;;8.16;33.47
69909;BME280;57190;47.918;8.112;2022-12-18T09:05:44;91532.84;;;10.12;30.34
69909;BME280;57190;47.918;8.112;2022-12-18T09:08:10;91525.00;;;11.26;28.83
69909;BME280;57190;47.918;8.112;2022-12-18T09:10:42;91530.03;;;12.56;27.15
69909;BME280;57190;47.918;8.112;2022-12-18T09:13:09;91541.25;;;13.58;25.97
69909;BME280;57190;47.918;8.112;2022-12-18T09:15:40;91544.41;;;13.96;25.33
69909;BME280;57190;47.918;8.112;2022-12-18T09:18:07;91548.22;;;13.49;24.99
69909;BME280;57190;47.918;8.112;2022-12-18T09:20:32;91539.31;;;13.17;24.89
69909;BME280;57190;47.918;8.112;2022-12-18T09:22:57;91544.13;;;9.06;28.88
69909;BME280;57190;47.918;8.112;2022-12-18T09:25:23;91553.75;;;5.55;35.02
69909;BME280;57190;47.918;8.112;2022-12-18T09:27:49;91557.34;;;4.02;38.07
69909;BME280;57190;47.918;8.112;2022-12-18T09:30:14;91547.22;;;3.13;40.12
69909;BME280;57190;47.918;8.112;2022-12-18T09:32:40;91558.81;;;3.05;40.82
69909;BME280;57190;47.918;8.112;2022-12-18T09:35:05;91561.19;;;4.38;38.15
69909;BME280;57190;47.918;8.112;2022-12-18T09:37:31;91557.28;;;3.63;39.56
69909;BME280;57190;47.918;8.112;2022-12-18T09:39:56;91561.22;;;2.46;41.70
69909;BME280;57190;47.918;8.112;2022-12-18T09:42:22;91565.31;;;1.80;43.84
69909;BME280;57190;47.918;8.112;2022-12-18T09:44:53;91574.81;;;1.04;45.87
69909;BME280;57190;47.918;8.112;2022-12-18T09:47:24;91567.56;;;0.50;47.66
69909;BME280;57190;47.918;8.112;2022-12-18T09:49:54;91568.81;;;0.32;48.06
69909;BME280;57190;47.918;8.112;2022-12-18T09:52:35;91573.03;;;0.11;49.13
69909;BME280;57190;47.918;8.112;2022-12-18T09:55:33;91570.97;;;-0.15;50.46
69909;BME280;57190;47.918;8.112;2022-12-18T10:00:35;91571.53;;;0.02;50.77
69909;BME280;57190;47.918;8.112;2022-12-18T10:03:03;91575.53;;;0.63;49.80
69909;BME280;57190;47.918;8.112;2022-12-18T10:11:32;91571.59;;;0.52;50.31
69909;BME280;57190;47.918;8.112;2022-12-18T10:17:17;91574.03;;;2.83;45.37
69909;BME280;57190;47.918;8.112;2022-12-18T10:27:41;91584.53;;;0.75;49.76
69909;BME280;57190;47.918;8.112;2022-12-18T10:30:18;91588.75;;;0.26;51.46
69909;BME280;57190;47.918;8.112;2022-12-18T10:32:44;91580.78;;;0.20;52.48
69909;BME280;57190;47.918;8.112;2022-12-18T10:35:27;91581.13;;;0.53;51.99
69909;BME280;57190;47.918;8.112;2022-12-18T10:41:01;91570.97;;;2.99;46.44
69909;BME280;57190;47.918;8.112;2022-12-18T10:43:38;91566.88;;;2.36;48.05
69909;BME280;57190;47.918;8.112;2022-12-18T10:51:33;91572.47;;;0.88;52.51
69909;BME280;57190;47.918;8.112;2022-12-18T10:54:05;91574.09;;;1.52;51.46
69909;BME280;57190;47.918;8.112;2022-12-18T10:56:34;91574.00;;;1.39;52.09
69909;BME280;57190;47.918;8.112;2022-12-18T10:59:05;91570.47;;;1.18;52.45
69909;BME280;57190;47.918;8.112;2022-12-18T11:01:54;91567.75;;;0.76;53.57
69909;BME280;57190;47.918;8.112;2022-12-18T11:04:27;91563.41;;;0.62;54.63
69909;BME280;57190;47.918;8.112;2022-12-18T11:07:04;91556.50;;;0.54;55.07
69909;BME280;57190;47.918;8.112;2022-12-18T11:09:32;91550.91;;;0.42;55.86
69909;BME280;57190;47.918;8.112;2022-12-18T11:12:01;91549.31;;;0.20;56.44
69909;BME280;57190;47.918;8.112;2022-12-18T11:14:29;91541.00;;;0.16;57.05
69909;BME280;57190;47.918;8.112;2022-12-18T11:16:57;91541.22;;;0.21;57.06
69909;BME280;57190;47.918;8.112;2022-12-18T11:19:32;91546.25;;;0.16;57.97
69909;BME280;57190;47.918;8.112;2022-12-18T11:21:58;91544.25;;;0.18;57.64
69909;BME280;57190;47.918;8.112;2022-12-18T11:24:30;91548.44;;;0.12;58.04
69909;BME280;57190;47.918;8.112;2022-12-18T11:27:01;91544.09;;;0.05;58.41
69909;BME280;57190;47.918;8.112;2022-12-18T11:29:35;91545.94;;;0.04;58.53
69909;BME280;57190;47.918;8.112;2022-12-18T11:32:27;91541.06;;;0.01;59.01
69909;BME280;57190;47.918;8.112;2022-12-18T11:35:01;91541.56;;;0.11;58.75
69909;BME280;57190;47.918;8.112;2022-12-18T11:37:28;91546.56;;;0.06;58.71
69909;BME280;57190;47.918;8.112;2022-12-18T11:40:27;91541.69;;;0.03;59.46
69909;BME280;57190;47.918;8.112;2022-12-18T11:43:08;91549.31;;;-0.02;59.56
69909;BME280;57190;47.918;8.112;2022-12-18T11:45:43;91547.41;;;-0.08;59.97
69909;BME280;57190;47.918;8.112;2022-12-18T11:50:49;91548.03;;;-0.28;59.90
69909;BME280;57190;47.918;8.112;2022-12-18T11:53:17;91542.59;;;-0.26;60.75
69909;BME280;57190;47.918;8.112;2022-12-18T12:12:24;91534.94;;;0.37;60.33
69909;BME280;57190;47.918;8.112;2022-12-18T12:15:06;91524.94;;;0.26;60.70
69909;BME280;57190;47.918;8.112;2022-12-18T12:17:38;91523.38;;;0.10;61.34
69909;BME280;57190;47.918;8.112;2022-12-18T12:20:21;91516.81;;;0.21;61.37
69909;BME280;57190;47.918;8.112;2022-12-18T12:23:05;91525.94;;;0.25;60.99
69909;BME280;57190;47.918;8.112;2022-12-18T12:25:48;91520.72;;;0.25;61.15
69909;BME280;57190;47.918;8.112;2022-12-18T12:28:33;91524.75;;;0.27;61.77
69909;BME280;57190;47.918;8.112;2022-12-18T12:36:51;91520.91;;;0.02;62.91
69909;BME280;57190;47.918;8.112;2022-12-18T12:39:23;91525.19;;;0.09;63.15
69909;BME280;57190;47.918;8.112;2022-12-18T12:41:52;91522.56;;;0.09;63.40
69909;BME280;57190;47.918;8.112;2022-12-18T12:44:44;91524.50;;;0.22;62.95
69909;BME280;57190;47.918;8.112;2022-12-18T12:47:35;91524.19;;;0.32;63.04
69909;BME280;57190;47.918;8.112;2022-12-18T12:50:05;91524.78;;;0.34;62.87
69909;BME280;57190;47.918;8.112;2022-12-18T12:52:43;91529.00;;;0.28;63.55
69909;BME280;57190;47.918;8.112;2022-12-18T12:55:20;91534.75;;;0.17;63.32
69909;BME280;57190;47.918;8.112;2022-12-18T12:58:04;91530.31;;;0.18;63.89
69909;BME280;57190;47.918;8.112;2022-12-18T13:01:25;91532.25;;;0.09;63.97
69909;BME280;57190;47.918;8.112;2022-12-18T13:08:58;91526.56;;;0.27;63.66
69909;BME280;57190;47.918;8.112;2022-12-18T13:11:30;91536.50;;;0.31;64.22
69909;BME280;57190;47.918;8.112;2022-12-18T13:14:29;91530.59;;;0.29;64.06
69909;BME280;57190;47.918;8.112;2022-12-18T13:20:13;91533.97;;;0.17;64.59
69909;BME280;57190;47.918;8.112;2022-12-18T13:22:49;91527.00;;;0.09;65.11
69909;BME280;57190;47.918;8.112;2022-12-18T13:25:33;91517.50;;;0.08;65.28
69909;BME280;57190;47.918;8.112;2022-12-18T13:28:06;91524.19;;;0.10;65.29
69909;BME280;57190;47.918;8.112;2022-12-18T13:41:22;91509.56;;;0.01;66.31
69909;BME280;57190;47.918;8.112;2022-12-18T13:44:07;91512.81;;;0.03;67.03
69909;BME280;57190;47.918;8.112;2022-12-18T13:46:48;91507.59;;;0.03;66.91
69909;BME280;57190;47.918;8.112;2022-12-18T13:49:35;91513.22;;;0.00;66.86
69909;BME280;57190;47.918;8.112;2022-12-18T13:52:02;91510.59;;;0.00;66.48
69909;BME280;57190;47.918;8.112;2022-12-18T13:54:39;91502.66;;;-0.07;67.81
69909;BME280;57190;47.918;8.112;2022-12-18T13:59:50;91514.47;;;0.04;68.21
69909;BME280;57190;47.918;8.112;2022-12-18T14:02:19;91512.25;;;0.08;67.87
69909;BME280;57190;47.918;8.112;2022-12-18T14:04:47;91516.88;;;-0.16;67.80
69909;BME280;57190;47.918;8.112;2022-12-18T14:09:43;91516.13;;;-0.32;68.35
69909;BME280;57190;47.918;8.112;2022-12-18T14:12:35;91511.28;;;-0.50;69.40
69909;BME280;57190;47.918;8.112;2022-12-18T14:17:44;91508.88;;;-0.66;69.04
69909;BME280;57190;47.918;8.112;2022-12-18T14:20:14;91510.88;;;-0.68;69.10
69909;BME280;57190;47.918;8.112;2022-12-18T14:22:43;91510.59;;;-0.73;69.38
69909;BME280;57190;47.918;8.112;2022-12-18T14:25:16;91510.69;;;-0.67;69.34
69909;BME280;57190;47.918;8.112;2022-12-18T14:27:48;91525.03;;;-0.63;69.32
69909;BME280;57190;47.918;8.112;2022-12-18T14:30:37;91514.50;;;-0.69;69.88
69909;BME280;57190;47.918;8.112;2022-12-18T14:33:09;91516.38;;;-0.78;70.21
69909;BME280;57190;47.918;8.112;2022-12-18T14:35:38;91518.84;;;-0.91;70.70
69909;BME280;57190;47.918;8.112;2022-12-18T14:41:02;91516.78;;;-0.96;70.80
69909;BME280;57190;47.918;8.112;2022-12-18T14:43:32;91515.88;;;-1.03;71.36
69909;BME280;57190;47.918;8.112;2022-12-18T14:45:58;91513.50;;;-1.13;71.73
69909;BME280;57190;47.918;8.112;2022-12-18T14:48:40;91513.97;;;-1.24;71.89
69909;BME280;57190;47.918;8.112;2022-12-18T14:51:15;91513.88;;;-1.31;72.18
69909;BME280;57190;47.918;8.112;2022-12-18T14:53:44;91514.53;;;-1.29;71.72
69909;BME280;57190;47.918;8.112;2022-12-18T14:56:31;91518.22;;;-1.38;71.90
69909;BME280;57190;47.918;8.112;2022-12-18T14:59:02;91515.47;;;-1.45;72.63
69909;BME280;57190;47.918;8.112;2022-12-18T15:01:36;91514.38;;;-1.51;72.95
69909;BME280;57190;47.918;8.112;2022-12-18T15:04:04;91513.84;;;-1.61;73.07